Time;durP1;ratioP1;P1;durP2;ratioP2;P2;SDS_P1;SDS_P2;PMS_P1;PMS_P2;Temp;Humidity;BMP_temperature;BMP_pressure;BME280_temperature;BME280_humidity;BME280_pressure;Samples;Min_cycle;Max_cycle;Signal;HPM_P1;HPM_P2
2023/12/03 00:00:35;;;;;;;13.95;6.28;;;;;;;-4.22;96.21;100589.31;5024334;28;20052;-56
2023/12/03 00:03:06;;;;;;;14.90;6.32;;;;;;;-4.35;96.55;100593.84;5035362;28;20509;-56
2023/12/03 00:05:38;;;;;;;10.50;5.32;;;;;;;-4.27;97.04;100595.88;5024487;28;20098;-55
2023/12/03 00:08:09;;;;;;;10.38;5.13;;;;;;;-4.20;96.47;100592.84;5035586;28;20588;-57
2023/12/03 00:10:42;;;;;;;10.52;5.68;;;;;;;-4.01;96.46;100585.25;5023805;28;20045;-57
2023/12/03 00:13:13;;;;;;;9.35;5.18;;;;;;;-3.71;95.97;100590.03;5035229;28;20056;-56
2023/12/03 00:15:43;;;;;;;10.02;4.85;;;;;;;-3.53;94.63;100590.00;5023425;28;20042;-57
2023/12/03 00:18:14;;;;;;;8.77;4.38;;;;;;;-3.40;93.01;100586.31;5034880;28;20056;-57
2023/12/03 00:20:45;;;;;;;8.30;4.45;;;;;;;-3.28;92.81;100599.66;5025061;28;20049;-56
2023/12/03 00:23:15;;;;;;;6.85;4.13;;;;;;;-2.94;91.10;100593.47;5035397;28;20084;-57
2023/12/03 00:25:47;;;;;;;9.70;4.40;;;;;;;-2.44;90.55;100593.03;5025487;28;20060;-56
2023/12/03 00:28:18;;;;;;;7.97;4.38;;;;;;;-1.95;90.10;100599.25;5036314;28;20063;-57
2023/12/03 00:30:48;;;;;;;9.20;3.95;;;;;;;-1.88;86.86;100596.13;5023894;28;20127;-56
2023/12/03 00:33:19;;;;;;;9.93;4.47;;;;;;;-2.02;84.72;100602.38;5035635;28;20525;-56
2023/12/03 00:35:49;;;;;;;8.85;3.47;;;;;;;-2.23;84.74;100603.25;5024794;28;20056;-56
2023/12/03 00:38:19;;;;;;;14.45;3.95;;;;;;;-2.32;84.22;100605.47;5034709;28;20383;-56
2023/12/03 00:40:51;;;;;;;7.70;4.22;;;;;;;-2.18;85.75;100599.19;5023591;28;20049;-56
2023/12/03 00:43:22;;;;;;;10.90;3.90;;;;;;;-2.29;84.06;100592.78;5035734;28;20048;-57
2023/12/03 00:45:53;;;;;;;7.13;3.60;;;;;;;-2.27;85.13;100606.53;5025167;28;20078;-55
2023/12/03 00:48:23;;;;;;;6.10;2.78;;;;;;;-2.29;84.74;100613.28;5033872;28;20480;-55
2023/12/03 00:50:54;;;;;;;5.28;3.00;;;;;;;-2.33;83.62;100616.50;5038295;28;20631;-56
2023/12/03 00:53:24;;;;;;;9.63;2.58;;;;;;;-2.41;82.92;100610.22;5033009;28;20794;-56
2023/12/03 00:55:56;;;;;;;6.28;2.70;;;;;;;-2.35;82.90;100623.25;5039073;28;21148;-56
2023/12/03 00:58:27;;;;;;;4.82;2.50;;;;;;;-2.45;82.71;100621.13;5029431;28;20052;-56
2023/12/03 01:00:57;;;;;;;5.65;2.80;;;;;;;-2.48;84.25;100621.00;5038620;28;20048;-55
2023/12/03 01:03:28;;;;;;;8.05;2.70;;;;;;;-2.55;84.15;100624.97;5027736;28;20040;-57
2023/12/03 01:05:59;;;;;;;8.25;2.92;;;;;;;-2.54;84.45;100628.44;5038080;28;20064;-56
2023/12/03 01:08:29;;;;;;;10.50;3.00;;;;;;;-2.73;83.39;100630.19;5027456;28;20051;-56
2023/12/03 01:11:04;;;;;;;6.20;2.75;;;;;;;-2.78;84.40;100625.69;5038418;28;20056;-56
2023/12/03 01:13:35;;;;;;;8.82;3.50;;;;;;;-2.79;84.97;100624.81;5028429;28;20057;-56
2023/12/03 01:16:06;;;;;;;10.07;3.40;;;;;;;-2.96;83.95;100615.53;5030952;28;20056;-56
2023/12/03 01:18:36;;;;;;;8.90;2.95;;;;;;;-2.99;84.00;100615.41;5024662;28;20082;-56
2023/12/03 01:21:07;;;;;;;6.03;3.13;;;;;;;-2.91;84.22;100619.16;5034807;28;20114;-55
2023/12/03 01:23:38;;;;;;;6.68;2.90;;;;;;;-2.91;83.20;100583.38;5024449;28;20110;-56
2023/12/03 01:26:10;;;;;;;6.10;2.92;;;;;;;-2.59;83.60;100614.56;5033865;28;21139;-55
2023/12/03 01:28:41;;;;;;;5.68;3.50;;;;;;;-2.42;82.90;100611.00;5023229;28;20052;-56
2023/12/03 01:31:11;;;;;;;6.65;3.40;;;;;;;-2.29;82.01;100613.28;5034378;28;20052;-56
2023/12/03 01:33:41;;;;;;;5.70;2.72;;;;;;;-2.22;80.95;100605.03;5024773;28;20072;-56
2023/12/03 01:36:12;;;;;;;8.40;2.83;;;;;;;-2.14;80.15;100607.03;5034457;28;20048;-56
2023/12/03 01:38:42;;;;;;;6.60;2.83;;;;;;;-2.06;78.00;100613.31;5027080;28;20048;-56
2023/12/03 01:41:15;;;;;;;6.32;2.83;;;;;;;-2.05;76.52;100612.50;5039443;28;20048;-56
2023/12/03 01:43:52;;;;;;;6.60;2.95;;;;;;;-2.06;76.01;100615.88;5034500;28;21325;-56
2023/12/03 01:46:23;;;;;;;4.78;2.97;;;;;;;-2.39;77.03;100565.09;5046634;28;20602;-55
2023/12/03 01:48:54;;;;;;;7.35;3.25;;;;;;;-2.24;76.42;100611.78;5018438;28;20072;-55
2023/12/03 01:51:24;;;;;;;6.03;2.90;;;;;;;-2.32;76.97;100608.03;5026850;28;20135;-55
2023/12/03 01:53:56;;;;;;;5.45;2.65;;;;;;;-2.33;76.96;100601.16;5032990;28;20092;-56
2023/12/03 01:56:28;;;;;;;5.05;2.78;;;;;;;-2.34;76.09;100613.91;5014114;28;20939;-55
2023/12/03 01:58:59;;;;;;;5.75;3.03;;;;;;;-2.45;75.64;100613.44;5035498;28;20080;-57
2023/12/03 02:01:29;;;;;;;5.80;3.03;;;;;;;-2.47;76.24;100612.50;5025843;28;20446;-56
2023/12/03 02:04:00;;;;;;;6.82;3.25;;;;;;;-2.56;75.63;100612.13;5033897;28;20072;-56
2023/12/03 02:06:30;;;;;;;8.68;2.97;;;;;;;-2.74;75.70;100602.88;5024817;28;20421;-56
2023/12/03 02:09:01;;;;;;;4.30;2.75;;;;;;;-2.88;76.98;100606.50;5036936;28;20143;-56
2023/12/03 02:11:33;;;;;;;4.97;2.83;;;;;;;-2.91;78.05;100609.81;5026946;28;20067;-56
2023/12/03 02:14:04;;;;;;;5.88;3.00;;;;;;;-2.85;77.60;100615.19;5037816;28;20937;-56
2023/12/03 02:16:36;;;;;;;6.07;3.10;;;;;;;-2.80;77.51;100607.72;5027906;28;20076;-56
2023/12/03 02:19:06;;;;;;;6.45;3.15;;;;;;;-2.71;77.34;100613.22;5018364;28;20045;-56
2023/12/03 02:21:37;;;;;;;4.80;2.72;;;;;;;-2.57;77.15;100610.38;5023253;28;20048;-56
2023/12/03 02:24:09;;;;;;;9.40;3.15;;;;;;;-2.48;76.71;100610.75;5041639;28;20048;-56
2023/12/03 02:26:40;;;;;;;6.82;3.10;;;;;;;-2.46;75.99;100614.25;5031426;28;20053;-56
2023/12/03 02:29:10;;;;;;;6.45;3.10;;;;;;;-2.53;76.56;100599.47;5040964;28;20047;-56
2023/12/03 02:31:41;;;;;;;5.20;2.88;;;;;;;-2.53;77.19;100607.13;5019182;28;20169;-56
2023/12/03 02:34:13;;;;;;;6.30;3.10;;;;;;;-2.61;76.75;100615.34;5033516;28;20108;-56
2023/12/03 02:36:43;;;;;;;7.30;2.70;;;;;;;-2.62;76.74;100608.50;5019956;28;20060;-56
2023/12/03 02:39:16;;;;;;;4.70;2.60;;;;;;;-2.52;76.69;100608.88;5030557;28;20466;-56
2023/12/03 02:41:46;;;;;;;8.07;3.00;;;;;;;-2.39;76.58;100600.91;5019531;28;20061;-56
2023/12/03 02:44:17;;;;;;;4.15;2.60;;;;;;;-2.27;76.15;100610.75;5031553;28;20171;-56
2023/12/03 02:46:47;;;;;;;5.90;2.72;;;;;;;-2.22;74.66;100599.00;5013374;28;21453;-56
2023/12/03 02:49:17;;;;;;;6.00;2.70;;;;;;;-2.25;74.97;100602.31;5010543;28;20063;-56
2023/12/03 02:51:48;;;;;;;7.18;2.97;;;;;;;-2.25;74.32;100604.88;5015953;28;20154;-56
2023/12/03 02:54:20;;;;;;;4.22;2.30;;;;;;;-2.25;74.30;100604.88;5026430;28;20131;-56
2023/12/03 02:56:50;;;;;;;3.95;2.47;;;;;;;-2.41;74.55;100607.66;5024856;28;20060;-56
2023/12/03 02:59:21;;;;;;;6.68;2.72;;;;;;;-2.45;74.52;100610.88;5035458;28;20057;-56
2023/12/03 03:01:51;;;;;;;6.13;2.97;;;;;;;-2.46;74.53;100604.03;5025549;28;20060;-55
2023/12/03 03:04:22;;;;;;;8.48;3.00;;;;;;;-2.31;73.96;100608.91;5035332;28;20557;-56
2023/12/03 03:06:52;;;;;;;5.03;2.65;;;;;;;-2.31;73.96;100614.03;5014077;28;20044;-56
2023/12/03 03:09:24;;;;;;;7.00;2.83;;;;;;;-2.25;74.41;100604.88;5027154;28;20140;-56
2023/12/03 03:11:57;;;;;;;3.95;2.20;;;;;;;-2.13;73.67;100619.88;5014574;28;20078;-56
2023/12/03 03:14:27;;;;;;;6.43;3.35;;;;;;;-2.22;73.01;100610.16;5027587;28;20040;-56
2023/12/03 03:16:58;;;;;;;4.65;2.60;;;;;;;-2.08;73.72;100617.50;5044039;28;20052;-56
2023/12/03 03:19:28;;;;;;;4.50;2.33;;;;;;;-1.98;73.03;100615.38;5033515;28;20383;-56
2023/12/03 03:21:59;;;;;;;5.25;2.83;;;;;;;-1.89;72.01;100614.88;5037829;28;20080;-56
2023/12/03 03:24:31;;;;;;;4.55;2.50;;;;;;;-2.11;71.33;100572.16;5018209;28;20049;-56
2023/12/03 03:27:02;;;;;;;5.15;2.40;;;;;;;-1.92;70.22;100613.84;5029589;28;20060;-56
2023/12/03 03:29:32;;;;;;;5.20;2.70;;;;;;;-1.90;69.80;100615.66;5022575;28;20057;-55
2023/12/03 03:32:03;;;;;;;3.80;2.47;;;;;;;-1.89;69.56;100620.00;5032777;28;20063;-56
2023/12/03 03:34:33;;;;;;;4.07;2.33;;;;;;;-1.81;69.11;100623.72;5035993;28;20052;-55
2023/12/03 03:37:05;;;;;;;5.15;2.60;;;;;;;-1.99;68.51;100628.13;5043865;28;20057;-56
2023/12/03 03:39:37;;;;;;;3.78;1.95;;;;;;;-2.10;68.13;100624.25;5034899;28;20052;-56
2023/12/03 03:42:08;;;;;;;7.68;2.85;;;;;;;-2.34;68.19;100630.13;5044731;28;20395;-56
2023/12/03 03:44:38;;;;;;;4.32;2.50;;;;;;;-2.52;68.38;100624.22;5028760;28;20068;-55
2023/12/03 03:47:09;;;;;;;5.95;2.75;;;;;;;-2.42;68.71;100636.59;5035140;28;20147;-55
2023/12/03 03:49:39;;;;;;;7.68;2.90;;;;;;;-2.23;68.78;100633.97;5023411;28;20059;-55
2023/12/03 03:52:10;;;;;;;4.43;2.60;;;;;;;-2.12;68.03;100641.22;5034101;28;20053;-55
2023/12/03 03:54:43;;;;;;;4.38;2.50;;;;;;;-2.12;67.73;100636.09;5025489;28;20202;-55
2023/12/03 03:57:13;;;;;;;4.32;2.47;;;;;;;-2.01;67.13;100637.44;5034635;28;20566;-55
2023/12/03 03:59:45;;;;;;;4.45;2.55;;;;;;;-1.92;67.07;100645.50;5024927;28;20057;-56
2023/12/03 04:02:15;;;;;;;6.40;2.65;;;;;;;-1.92;66.27;100645.50;5035394;28;20050;-56
2023/12/03 04:04:46;;;;;;;6.95;2.50;;;;;;;-2.03;66.36;100652.72;5024501;28;20576;-56
2023/12/03 04:07:16;;;;;;;5.55;2.72;;;;;;;-2.21;66.67;100652.84;5035246;28;20390;-56
2023/12/03 04:09:49;;;;;;;5.93;2.60;;;;;;;-2.22;67.25;100651.13;5025158;28;20051;-55
2023/12/03 04:12:19;;;;;;;5.38;2.55;;;;;;;-2.21;67.43;100660.53;5034759;28;20147;-55
2023/12/03 04:14:50;;;;;;;4.20;2.50;;;;;;;-2.12;67.07;100641.22;5024629;28;20048;-56
2023/12/03 04:17:20;;;;;;;4.88;2.67;;;;;;;-1.94;67.43;100657.34;5034256;28;20427;-55
2023/12/03 04:19:50;;;;;;;6.00;3.10;;;;;;;-1.87;66.86;100659.34;5024493;28;20052;-56
2023/12/03 04:22:21;;;;;;;5.00;2.45;;;;;;;-1.75;66.62;100653.81;5035094;28;20067;-55
2023/12/03 04:24:53;;;;;;;8.45;2.38;;;;;;;-1.75;66.44;100658.94;5024051;28;20049;-56
2023/12/03 04:27:23;;;;;;;6.35;2.63;;;;;;;-1.77;66.37;100664.03;5023142;28;20049;-54
2023/12/03 04:29:54;;;;;;;8.25;2.25;;;;;;;-1.86;67.29;100665.34;5024337;28;20067;-55
2023/12/03 04:32:24;;;;;;;3.70;2.65;;;;;;;-2.06;66.85;100664.53;5018188;28;20041;-56
2023/12/03 04:34:55;;;;;;;6.18;2.20;;;;;;;-2.28;67.72;100673.88;5024705;28;20052;-56
2023/12/03 04:37:25;;;;;;;6.55;2.50;;;;;;;-2.41;68.21;100684.41;5018797;28;20048;-55
2023/12/03 04:39:58;;;;;;;8.73;2.80;;;;;;;-2.65;68.53;100690.22;5043643;28;20143;-57
2023/12/03 04:42:28;;;;;;;5.07;2.28;;;;;;;-2.78;68.96;100687.94;5031539;28;20070;-55
2023/12/03 04:44:59;;;;;;;5.80;2.65;;;;;;;-2.91;69.79;100690.78;5039781;28;20060;-55
2023/12/03 04:47:30;;;;;;;4.13;2.25;;;;;;;-2.97;70.52;100695.59;5033495;28;20055;-55
2023/12/03 04:50:00;;;;;;;6.38;2.60;;;;;;;-3.00;70.45;100695.47;5044492;28;20622;-56
2023/12/03 04:52:31;;;;;;;5.45;2.85;;;;;;;-3.07;70.59;100705.44;5033592;28;20191;-55
2023/12/03 04:55:03;;;;;;;5.50;2.60;;;;;;;-3.10;69.78;100704.38;5043422;28;20140;-55
2023/12/03 04:57:33;;;;;;;5.75;2.67;;;;;;;-2.99;69.35;100697.22;5032710;28;20048;-55
2023/12/03 05:00:04;;;;;;;9.13;2.20;;;;;;;-2.92;68.24;100701.78;5043215;28;20052;-55
2023/12/03 05:02:34;;;;;;;9.27;2.53;;;;;;;-3.00;68.22;100708.25;5032863;28;20048;-55
2023/12/03 05:05:05;;;;;;;6.85;2.55;;;;;;;-3.14;67.83;100708.50;5034186;28;20041;-55
2023/12/03 05:07:36;;;;;;;5.82;2.88;;;;;;;-3.28;68.19;100722.31;5019465;28;20399;-55
2023/12/03 05:10:09;;;;;;;5.90;3.03;;;;;;;-3.30;69.00;100723.91;5030845;28;20053;-55
2023/12/03 05:12:40;;;;;;;6.47;2.78;;;;;;;-3.21;68.55;100726.03;5022107;28;20147;-55
2023/12/03 05:15:11;;;;;;;7.28;3.00;;;;;;;-3.22;68.57;100724.28;5031727;28;20114;-55
2023/12/03 05:17:42;;;;;;;4.65;2.20;;;;;;;-3.30;68.14;100734.13;5020008;28;20056;-54
2023/12/03 05:20:13;;;;;;;5.60;2.80;;;;;;;-3.26;69.30;100738.59;5030256;28;21357;-55
2023/12/03 05:22:43;;;;;;;6.45;2.22;;;;;;;-3.25;68.34;100735.22;5021565;28;20046;-55
2023/12/03 05:25:15;;;;;;;3.75;2.10;;;;;;;-3.67;68.44;100663.44;5025421;28;20049;-55
2023/12/03 05:27:45;;;;;;;6.78;2.55;;;;;;;-3.17;68.18;100748.38;5019507;28;20050;-55
2023/12/03 05:30:17;;;;;;;7.00;2.70;;;;;;;-3.26;68.18;100741.16;5037464;28;20053;-55
2023/12/03 05:32:47;;;;;;;5.82;2.20;;;;;;;-3.38;68.47;100753.34;5027246;28;20049;-55
2023/12/03 05:35:17;;;;;;;5.95;3.08;;;;;;;-3.54;68.08;100747.53;5037957;28;20048;-55
2023/12/03 05:37:48;;;;;;;7.50;2.70;;;;;;;-3.64;68.09;100759.75;5030978;28;20049;-54
2023/12/03 05:40:20;;;;;;;5.25;2.90;;;;;;;-3.72;68.04;100761.94;5040758;28;20414;-55
2023/12/03 05:42:51;;;;;;;4.88;2.30;;;;;;;-3.80;68.34;100773.47;5030951;28;20045;-56
2023/12/03 05:45:21;;;;;;;6.28;2.70;;;;;;;-3.82;68.58;100775.06;5040748;28;20059;-55
2023/12/03 05:47:52;;;;;;;6.65;2.60;;;;;;;-3.86;68.45;100773.16;5029856;28;20530;-55
2023/12/03 05:50:22;;;;;;;5.00;2.50;;;;;;;-3.94;68.75;100783.88;5040700;28;20525;-55
2023/12/03 05:52:52;;;;;;;3.67;2.10;;;;;;;-3.94;69.01;100785.56;5030350;28;20151;-55
2023/12/03 05:55:25;;;;;;;4.70;2.10;;;;;;;-4.00;69.11;100788.66;5040916;28;20056;-54
2023/12/03 05:57:55;;;;;;;6.38;2.50;;;;;;;-4.06;69.02;100782.38;5032389;28;20076;-54
2023/12/03 06:00:25;;;;;;;4.82;2.47;;;;;;;-4.09;69.40;100800.06;5039969;28;20360;-55
2023/12/03 06:02:59;;;;;;;4.68;2.47;;;;;;;-4.06;69.92;100796.00;5050306;28;20048;-55
2023/12/03 06:05:29;;;;;;;6.03;3.15;;;;;;;-4.14;69.71;100802.41;5026570;28;20041;-55
2023/12/03 06:07:59;;;;;;;8.93;3.03;;;;;;;-4.24;69.55;100805.25;5039895;28;20048;-55
2023/12/03 06:10:31;;;;;;;6.40;3.17;;;;;;;-4.30;69.83;100815.16;4990977;28;20746;-55
2023/12/03 06:13:02;;;;;;;8.95;3.42;;;;;;;-4.42;69.71;100816.28;5001011;28;20060;-55
2023/12/03 06:15:32;;;;;;;6.72;3.53;;;;;;;-4.53;70.13;100822.47;4991924;28;20076;-55
2023/12/03 06:18:03;;;;;;;6.15;3.35;;;;;;;-4.63;70.21;100825.34;5000161;28;20503;-55
2023/12/03 06:20:33;;;;;;;6.65;3.28;;;;;;;-4.75;70.45;100825.56;4990114;28;20057;-55
2023/12/03 06:23:04;;;;;;;5.35;3.33;;;;;;;-4.85;71.11;100831.81;4997774;28;20045;-55
2023/12/03 06:25:36;;;;;;;6.65;3.08;;;;;;;-4.94;71.32;100849.19;4989676;28;20056;-55
2023/12/03 06:28:07;;;;;;;9.45;3.67;;;;;;;-5.05;71.86;100846.00;5001592;28;20087;-55
2023/12/03 06:30:37;;;;;;;6.20;3.33;;;;;;;-5.14;72.51;100867.56;4991403;28;20049;-55
2023/12/03 06:33:08;;;;;;;8.35;4.53;;;;;;;-5.39;73.10;100828.00;5001488;28;20107;-55
2023/12/03 06:35:38;;;;;;;10.95;5.25;;;;;;;-5.40;73.35;100851.69;4992026;28;20821;-55
2023/12/03 06:38:09;;;;;;;9.73;4.32;;;;;;;-5.56;73.39;100855.03;5001507;28;20064;-55
2023/12/03 06:40:42;;;;;;;8.65;3.90;;;;;;;-5.71;74.06;100865.19;4991588;28;20089;-55
2023/12/03 06:43:12;;;;;;;11.68;7.18;;;;;;;-5.81;74.33;100873.09;5001446;28;20061;-55
2023/12/03 06:45:43;;;;;;;11.95;6.00;;;;;;;-5.94;74.54;100850.25;4991238;28;20056;-55
2023/12/03 06:48:13;;;;;;;19.58;8.90;;;;;;;-6.02;74.83;100851.47;5000345;28;20115;-53
2023/12/03 06:50:44;;;;;;;19.88;9.98;;;;;;;-6.01;75.10;100873.63;4991367;28;20237;-55
2023/12/03 06:53:14;;;;;;;10.05;6.20;;;;;;;-6.09;75.44;100881.66;5000675;28;20049;-55
2023/12/03 06:55:47;;;;;;;8.70;5.57;;;;;;;-6.19;75.64;100899.69;4985194;28;20055;-56
2023/12/03 06:58:18;;;;;;;10.15;5.10;;;;;;;-6.33;75.96;100891.22;4999833;28;20060;-54
2023/12/03 07:00:48;;;;;;;9.10;4.75;;;;;;;-6.46;76.54;100903.06;4988918;28;20049;-55
2023/12/03 07:03:19;;;;;;;15.80;5.47;;;;;;;-6.67;76.77;100875.53;4999878;28;20119;-55
2023/12/03 07:05:50;;;;;;;9.23;5.13;;;;;;;-6.64;77.13;100887.56;4989595;28;20111;-54
2023/12/03 07:08:21;;;;;;;9.25;4.93;;;;;;;-6.70;77.27;100892.28;5000519;28;20062;-55
2023/12/03 07:10:53;;;;;;;26.25;12.50;;;;;;;-7.01;77.79;100848.03;4990205;28;20062;-55
2023/12/03 07:13:23;;;;;;;33.05;16.73;;;;;;;-6.80;78.10;100900.97;5000343;28;20175;-55
2023/12/03 07:15:53;;;;;;;32.33;16.50;;;;;;;-6.85;78.09;100913.38;4990336;28;20058;-55
2023/12/03 07:18:24;;;;;;;20.80;11.02;;;;;;;-6.86;78.54;100915.81;4996551;28;20115;-55
2023/12/03 07:20:54;;;;;;;15.98;8.60;;;;;;;-7.00;78.31;100913.28;5000319;28;20061;-55
2023/12/03 07:23:25;;;;;;;11.55;4.88;;;;;;;-7.09;78.37;100915.22;4990199;28;20233;-54
2023/12/03 07:25:57;;;;;;;7.95;4.10;;;;;;;-7.21;78.04;100911.91;4999248;28;20053;-55
2023/12/03 07:28:27;;;;;;;6.70;3.80;;;;;;;-7.35;78.16;100917.75;4990421;28;20506;-55
2023/12/03 07:31:00;;;;;;;9.98;4.47;;;;;;;-7.42;79.01;100912.25;5000189;28;20514;-55
2023/12/03 07:33:30;;;;;;;10.25;4.30;;;;;;;-7.45;79.54;100916.25;4990051;28;20056;-56
2023/12/03 07:36:01;;;;;;;19.20;5.40;;;;;;;-7.40;80.34;100914.91;4999546;28;20341;-56
2023/12/03 07:38:32;;;;;;;18.70;5.80;;;;;;;-7.43;80.56;100907.97;4990214;28;20132;-55
2023/12/03 07:41:10;;;;;;;16.85;5.80;;;;;;;-7.56;80.63;100918.09;5000045;28;20063;-55
2023/12/03 07:43:40;;;;;;;129.05;41.47;;;;;;;-7.93;80.77;100920.69;4991235;28;20511;-55
2023/12/03 07:46:17;;;;;;;21.67;9.98;;;;;;;-8.33;81.93;100943.31;4999710;28;21328;-55
2023/12/03 07:48:47;;;;;;;24.10;10.52;;;;;;;-8.53;82.61;100943.59;4989823;28;20099;-55
2023/12/03 07:51:18;;;;;;;12.00;6.68;;;;;;;-8.58;83.85;100955.06;4999517;28;20041;-55
2023/12/03 07:53:49;;;;;;;7.05;4.40;;;;;;;-8.51;84.97;100952.16;4989087;28;20045;-55
2023/12/03 07:56:21;;;;;;;9.02;4.00;;;;;;;-8.43;85.91;100955.28;4999678;28;20051;-55
2023/12/03 07:58:51;;;;;;;8.00;3.72;;;;;;;-8.31;86.83;100958.59;4988166;28;20137;-55
2023/12/03 08:01:22;;;;;;;10.85;5.50;;;;;;;-8.18;87.32;100958.69;5000025;28;20063;-55
2023/12/03 08:03:52;;;;;;;9.05;4.45;;;;;;;-8.10;87.74;100956.69;4988329;28;21001;-55
2023/12/03 08:06:23;;;;;;;12.13;6.82;;;;;;;-8.13;87.40;100966.63;4998929;28;20076;-56
2023/12/03 08:08:54;;;;;;;11.85;5.85;;;;;;;-8.18;87.30;100978.09;4988762;28;20535;-55
2023/12/03 08:11:26;;;;;;;11.90;7.47;;;;;;;-8.22;87.21;100965.97;4993238;28;20468;-55
2023/12/03 08:13:56;;;;;;;32.80;12.80;;;;;;;-8.25;87.44;100967.53;4998862;28;20057;-55
2023/12/03 08:16:27;;;;;;;42.42;14.48;;;;;;;-8.20;87.64;100959.38;4990094;28;20409;-55
2023/12/03 08:18:58;;;;;;;54.20;18.30;;;;;;;-8.16;87.53;100964.75;4999745;28;20057;-55
2023/12/03 08:21:30;;;;;;;57.45;20.50;;;;;;;-8.31;87.56;100972.19;4989876;28;20092;-55
2023/12/03 08:24:01;;;;;;;13.10;6.82;;;;;;;-8.47;87.74;100979.50;4999700;28;20061;-55
2023/12/03 08:26:35;;;;;;;24.67;9.38;;;;;;;-8.20;89.42;100984.72;4989432;28;20053;-55
2023/12/03 08:29:06;;;;;;;19.42;8.07;;;;;;;-8.08;89.12;100985.59;4999819;28;20049;-55
2023/12/03 08:31:37;;;;;;;15.77;6.97;;;;;;;-8.13;88.43;100981.84;4990663;28;20447;-55
2023/12/03 08:34:08;;;;;;;17.58;6.05;;;;;;;-8.16;87.76;100991.75;4999913;28;20641;-55
2023/12/03 08:36:38;;;;;;;20.05;7.55;;;;;;;-8.19;87.62;100991.53;4983428;28;20527;-54
2023/12/03 08:39:09;;;;;;;13.75;5.22;;;;;;;-8.30;86.88;100994.22;4998919;28;20053;-55
2023/12/03 08:41:41;;;;;;;11.40;5.38;;;;;;;-8.50;86.14;100989.41;4989365;28;20053;-55
2023/12/03 08:44:12;;;;;;;10.98;5.40;;;;;;;-8.65;85.40;100998.47;4998944;28;20057;-54
2023/12/03 08:46:42;;;;;;;9.88;6.00;;;;;;;-8.77;85.92;101014.53;4988423;28;20045;-55
2023/12/03 08:49:13;;;;;;;16.90;7.75;;;;;;;-8.96;85.21;100996.22;4999201;28;20060;-55
2023/12/03 08:51:45;;;;;;;205.95;60.83;;;;;;;-9.10;85.60;101001.94;4989233;28;20121;-55
2023/12/03 08:54:16;;;;;;;157.68;51.05;;;;;;;-9.06;86.53;101003.91;4997237;28;20050;-55
2023/12/03 08:56:48;;;;;;;34.58;14.88;;;;;;;-9.01;86.81;100998.44;4988489;28;20141;-54
2023/12/03 08:59:19;;;;;;;13.50;7.55;;;;;;;-9.13;86.50;101008.53;4998236;28;20053;-55
2023/12/03 09:01:50;;;;;;;83.30;29.02;;;;;;;-9.34;86.94;101012.00;4988765;28;20084;-55
2023/12/03 09:04:21;;;;;;;26.52;10.52;;;;;;;-9.48;87.07;101022.72;4998830;28;20176;-55
2023/12/03 09:06:52;;;;;;;12.10;6.40;;;;;;;-9.60;87.28;101023.56;4988970;28;20057;-55
2023/12/03 09:09:23;;;;;;;8.60;5.47;;;;;;;-9.61;88.22;101021.81;4998991;28;20068;-55
2023/12/03 09:11:55;;;;;;;7.25;5.40;;;;;;;-9.64;88.70;101016.50;4991501;28;20699;-55
2023/12/03 09:14:27;;;;;;;6.90;4.93;;;;;;;-9.67;88.60;101026.38;4992806;28;20080;-55
2023/12/03 09:16:58;;;;;;;5.57;4.70;;;;;;;-9.66;89.31;101038.28;5002264;28;20054;-57
2023/12/03 09:19:29;;;;;;;6.22;4.50;;;;;;;-9.52;90.09;101040.97;4993006;28;20057;-54
2023/12/03 09:22:00;;;;;;;4.72;3.63;;;;;;;-9.44;89.95;101035.72;5002982;28;20057;-57
2023/12/03 09:24:31;;;;;;;6.22;3.45;;;;;;;-9.52;89.68;101025.81;4992550;28;20067;-57
2023/12/03 09:27:03;;;;;;;5.95;3.03;;;;;;;-9.40;89.70;101046.97;5003041;28;20077;-57
2023/12/03 09:29:36;;;;;;;4.13;2.53;;;;;;;-9.51;88.89;101052.84;4992292;28;20072;-55
2023/12/03 09:32:07;;;;;;;5.50;3.05;;;;;;;-9.63;88.78;101053.69;5002670;28;20057;-57
2023/12/03 09:34:39;;;;;;;5.88;3.45;;;;;;;-9.53;89.88;101049.31;4992757;28;20053;-57
2023/12/03 09:37:11;;;;;;;8.38;3.75;;;;;;;-9.45;89.98;101048.28;5002584;28;20455;-55
2023/12/03 09:39:42;;;;;;;7.32;2.90;;;;;;;-9.45;89.59;101058.41;4992361;28;20077;-55
2023/12/03 09:42:19;;;;;;;6.57;3.03;;;;;;;-9.62;89.83;101034.34;5002516;28;20216;-56
2023/12/03 09:45:01;;;;;;;6.18;4.00;;;;;;;-9.61;89.40;101062.28;4991546;28;20073;-55
2023/12/03 09:47:37;;;;;;;7.93;4.15;;;;;;;-9.71;88.85;101074.97;4992328;28;20058;-55
2023/12/03 09:50:10;;;;;;;8.82;3.70;;;;;;;-9.78;88.86;101067.69;5004882;28;20472;-55
2023/12/03 09:52:48;;;;;;;8.90;3.58;;;;;;;-9.73;89.29;101091.69;4991522;28;20054;-55
2023/12/03 09:55:22;;;;;;;4.47;2.85;;;;;;;-9.79;89.22;101073.50;5002013;28;20423;-56
2023/12/03 09:57:57;;;;;;;6.25;2.80;;;;;;;-9.99;88.29;101057.66;4991142;28;20072;-55
2023/12/03 10:00:32;;;;;;;8.35;3.63;;;;;;;-10.03;88.32;101060.72;4992258;28;20139;-56
2023/12/03 10:03:06;;;;;;;5.60;2.88;;;;;;;-10.04;87.98;101069.06;5002507;28;20693;-55
2023/12/03 10:05:40;;;;;;;6.07;3.38;;;;;;;-10.16;87.71;101062.16;4992105;28;20136;-55
2023/12/03 10:08:13;;;;;;;7.18;3.08;;;;;;;-10.29;87.09;101060.34;5001966;28;20115;-55
2023/12/03 10:10:48;;;;;;;6.90;3.50;;;;;;;-10.21;87.82;101055.13;4987519;28;20494;-55
2023/12/03 10:13:24;;;;;;;34.05;12.90;;;;;;;-10.20;88.20;101056.00;5001289;28;20049;-56
2023/12/03 10:15:56;;;;;;;27.77;13.13;;;;;;;-10.09;89.11;101065.28;4990712;28;20203;-56
2023/12/03 10:18:27;;;;;;;17.35;8.35;;;;;;;-9.99;89.37;101067.75;4992215;28;20115;-56
2023/12/03 10:21:09;;;;;;;5.57;3.92;;;;;;;-9.95;89.82;101065.50;5001925;28;20144;-56
2023/12/03 10:23:57;;;;;;;5.50;3.25;;;;;;;-10.17;88.49;101071.38;4990940;28;20112;-56
2023/12/03 10:26:28;;;;;;;4.93;3.10;;;;;;;-10.25;87.30;101082.53;4991707;28;20053;-56
2023/12/03 10:29:02;;;;;;;9.82;3.63;;;;;;;-10.27;87.60;101079.00;5001613;28;20138;-56
2023/12/03 10:31:34;;;;;;;8.25;3.78;;;;;;;-10.18;87.59;101087.31;4991540;28;20111;-57
2023/12/03 10:34:07;;;;;;;7.47;3.97;;;;;;;-10.30;86.90;101084.72;5001091;28;20744;-56
2023/12/03 10:36:39;;;;;;;5.93;3.13;;;;;;;-10.38;86.63;101092.44;4992766;28;20763;-56
2023/12/03 10:39:16;;;;;;;6.20;2.85;;;;;;;-10.64;85.61;101096.28;5001538;28;20050;-56
2023/12/03 10:41:50;;;;;;;5.60;3.10;;;;;;;-10.62;86.19;101093.91;4991153;28;20060;-56
2023/12/03 10:44:28;;;;;;;6.22;3.40;;;;;;;-10.63;86.25;101103.13;5000447;28;20488;-56
2023/12/03 10:47:00;;;;;;;10.52;4.38;;;;;;;-11.09;86.37;101024.50;4991064;28;20119;-56
2023/12/03 10:49:35;;;;;;;14.32;4.88;;;;;;;-10.70;86.73;101110.94;4990836;28;20061;-56
2023/12/03 10:52:10;;;;;;;6.75;3.40;;;;;;;-10.67;87.13;101106.16;5001080;28;20064;-56
2023/12/03 10:54:43;;;;;;;5.95;3.35;;;;;;;-10.60;87.21;101103.38;4991019;28;20570;-56
2023/12/03 10:57:20;;;;;;;6.63;3.45;;;;;;;-10.69;86.61;101118.63;5000577;28;20147;-56
2023/12/03 11:00:02;;;;;;;6.15;3.63;;;;;;;-10.66;86.81;101103.75;4990286;28;20053;-56
2023/12/03 11:02:41;;;;;;;6.90;3.30;;;;;;;-10.71;86.14;101099.06;4991179;28;20074;-57
2023/12/03 11:05:19;;;;;;;;;;;;;;;-10.77;86.28;101101.09;5001323;28;20605;-56
2023/12/03 11:07:52;;;;;;;3.95;2.90;;;;;;;-10.90;86.12;101102.63;4990400;28;20018;-56
2023/12/03 11:10:23;;;;;;;6.57;3.50;;;;;;;-10.96;86.19;101107.16;5000829;28;20082;-56
2023/12/03 11:13:00;;;;;;;3.40;2.58;;;;;;;-10.89;86.54;101104.38;4990839;28;20060;-56
2023/12/03 11:15:35;;;;;;;2.97;2.55;;;;;;;-10.75;86.92;101097.06;4990966;28;21081;-57
2023/12/03 11:18:07;;;;;;;6.30;2.90;;;;;;;-10.92;86.20;101083.94;5000005;28;20073;-56
2023/12/03 11:20:42;;;;;;;6.35;3.40;;;;;;;-10.92;86.28;101109.19;4991398;28;20049;-56
2023/12/03 11:23:34;;;;;;;6.10;3.33;;;;;;;-10.97;86.08;101102.88;5000233;28;20052;-56
2023/12/03 11:26:10;;;;;;;5.68;3.33;;;;;;;-10.99;85.95;101106.91;5000662;28;20115;-56
2023/12/03 11:28:52;;;;;;;7.13;3.33;;;;;;;-11.02;85.81;101111.69;4990785;28;20049;-56
2023/12/03 11:31:28;;;;;;;10.27;3.28;;;;;;;-10.95;86.28;101091.25;4990440;28;20053;-56
2023/12/03 11:34:00;;;;;;;7.35;3.65;;;;;;;-10.89;86.01;101101.84;4999688;28;20111;-57
2023/12/03 11:36:38;;;;;;;9.48;3.88;;;;;;;-11.16;84.64;101112.19;4990821;28;20057;-57
2023/12/03 11:39:09;;;;;;;6.97;3.55;;;;;;;-11.32;84.09;101115.06;5000384;28;20049;-56
2023/12/03 11:41:40;;;;;;;6.63;3.50;;;;;;;-11.29;84.46;101111.16;4990033;28;20071;-57